createdAt,value
2017-06-05T00:00:08.081Z,17.67
2017-06-05T00:01:08.045Z,17.64
2017-06-05T00:02:08.088Z,17.62
2017-06-05T00:03:08.017Z,17.60
2017-06-05T00:04:08.197Z,17.59
2017-06-05T00:05:08.112Z,17.59
2017-06-05T00:06:08.061Z,17.57
2017-06-05T00:07:08.148Z,17.55
2017-06-05T00:08:08.038Z,17.58
2017-06-05T00:09:08.151Z,17.57
2017-06-05T00:10:08.222Z,17.56
2017-06-05T00:11:08.106Z,17.59
2017-06-05T00:12:07.927Z,17.54
2017-06-05T00:13:08.184Z,17.54
2017-06-05T00:14:08.271Z,17.54
2017-06-05T00:15:08.113Z,17.47
2017-06-05T00:16:08.143Z,17.45
2017-06-05T00:17:08.165Z,17.43
2017-06-05T00:18:07.393Z,17.44
2017-06-05T00:19:08.347Z,17.48
2017-06-05T00:20:08.123Z,17.50
2017-06-05T00:21:08.191Z,17.48
2017-06-05T00:22:08.186Z,17.45
2017-06-05T00:23:08.092Z,17.39
2017-06-05T00:24:08.172Z,17.40
2017-06-05T00:25:08.182Z,17.41
2017-06-05T00:26:08.147Z,17.39
2017-06-05T00:27:08.220Z,17.36
2017-06-05T00:28:08.164Z,17.38
2017-06-05T00:29:08.382Z,17.35
2017-06-05T00:30:08.168Z,17.37
2017-06-05T00:31:07.992Z,17.33
2017-06-05T00:32:08.142Z,17.33
2017-06-05T00:33:08.184Z,17.27
2017-06-05T00:34:08.158Z,17.24
2017-06-05T00:35:08.144Z,17.24
2017-06-05T00:36:08.176Z,17.24
2017-06-05T00:37:08.162Z,17.25
2017-06-05T00:38:08.152Z,17.25
2017-06-05T00:39:07.450Z,17.26
2017-06-05T00:40:08.315Z,17.26
2017-06-05T00:41:08.048Z,17.25
2017-06-05T00:42:08.053Z,17.18
2017-06-05T00:43:08.235Z,17.13
2017-06-05T00:44:08.138Z,17.12
2017-06-05T00:45:08.420Z,17.15
2017-06-05T00:46:08.028Z,17.18
2017-06-05T00:47:08.199Z,17.13
2017-06-05T00:48:08.577Z,17.16
2017-06-05T00:49:07.448Z,17.14
2017-06-05T00:50:07.377Z,17.11
2017-06-05T00:51:08.218Z,17.12
2017-06-05T00:52:08.034Z,17.11
2017-06-05T00:53:08.192Z,17.11
2017-06-05T00:54:08.252Z,17.09
2017-06-05T00:55:08.253Z,17.08
2017-06-05T00:56:08.015Z,17.05
2017-06-05T00:57:08.143Z,17.05
2017-06-05T00:58:08.094Z,17.06
2017-06-05T00:59:08.236Z,17.06
2017-06-05T01:00:08.155Z,17.01
2017-06-05T01:01:08.307Z,16.98
2017-06-05T01:02:07.397Z,16.98
2017-06-05T01:03:08.054Z,16.98
2017-06-05T01:04:08.141Z,17.01
2017-06-05T01:05:08.182Z,16.97
2017-06-05T01:06:08.519Z,16.98
2017-06-05T01:07:08.114Z,16.98
2017-06-05T01:08:08.244Z,16.99
2017-06-05T01:09:07.434Z,16.96
2017-06-05T01:10:08.224Z,16.95
2017-06-05T01:11:08.274Z,16.95
2017-06-05T01:12:08.293Z,16.96
2017-06-05T01:13:08.148Z,16.96
2017-06-05T01:14:08.158Z,16.93
2017-06-05T01:15:08.208Z,16.93
2017-06-05T01:16:08.332Z,16.90
2017-06-05T01:17:08.271Z,16.89
2017-06-05T01:18:07.222Z,16.89
2017-06-05T01:19:08.053Z,16.88
2017-06-05T01:20:08.060Z,16.88
2017-06-05T01:21:08.057Z,16.86
2017-06-05T01:22:08.111Z,16.84
2017-06-05T01:23:08.047Z,16.83
2017-06-05T01:24:07.940Z,16.82
2017-06-05T01:25:08.818Z,16.83
2017-06-05T01:26:08.008Z,16.82
2017-06-05T01:27:08.219Z,16.84
2017-06-05T01:28:07.983Z,16.84
2017-06-05T01:29:08.043Z,16.79
2017-06-05T01:30:07.989Z,16.80
2017-06-05T01:31:08.004Z,16.83
2017-06-05T01:32:08.110Z,16.83
2017-06-05T01:33:07.960Z,16.81
2017-06-05T01:34:07.871Z,16.79
2017-06-05T01:35:07.769Z,16.78
2017-06-05T01:36:07.793Z,16.78
2017-06-05T01:37:07.847Z,16.75
2017-06-05T01:38:08.039Z,16.74
2017-06-05T01:39:07.677Z,16.74
2017-06-05T01:40:07.470Z,16.75
2017-06-05T01:41:07.478Z,16.75
2017-06-05T01:42:08.334Z,16.76
2017-06-05T01:43:08.295Z,16.72
2017-06-05T01:44:07.334Z,16.73
2017-06-05T01:45:08.270Z,16.72
2017-06-05T01:46:07.377Z,16.70
2017-06-05T01:47:08.284Z,16.69
2017-06-05T01:48:08.154Z,16.67
2017-06-05T01:49:08.083Z,16.64
2017-06-05T01:50:08.316Z,16.66
2017-06-05T01:51:07.984Z,16.64
2017-06-05T01:52:07.908Z,16.62
2017-06-05T01:53:08.025Z,16.56
2017-06-05T01:54:07.826Z,16.55
2017-06-05T01:55:07.644Z,16.60
2017-06-05T01:56:07.740Z,16.62
2017-06-05T01:57:07.576Z,16.63
2017-06-05T01:58:07.573Z,16.62
2017-06-05T01:59:07.473Z,16.63
2017-06-05T02:00:08.193Z,16.64
2017-06-05T02:01:08.247Z,16.63
2017-06-05T02:02:08.144Z,16.61
2017-06-05T02:03:08.055Z,16.66
2017-06-05T02:04:08.005Z,16.67
2017-06-05T02:05:07.993Z,16.65
2017-06-05T02:06:08.003Z,16.62
2017-06-05T02:07:08.019Z,16.58
2017-06-05T02:08:08.056Z,16.58
2017-06-05T02:09:07.867Z,16.59
2017-06-05T02:10:07.861Z,16.57
2017-06-05T02:11:07.710Z,16.58
2017-06-05T02:12:07.644Z,16.58
2017-06-05T02:13:07.351Z,16.57
2017-06-05T02:14:07.464Z,16.59
2017-06-05T02:15:08.216Z,16.61
2017-06-05T02:16:07.318Z,16.65
2017-06-05T02:17:08.147Z,16.64
2017-06-05T02:18:08.156Z,16.58
2017-06-05T02:19:08.146Z,16.55
2017-06-05T02:20:08.124Z,16.56
2017-06-05T02:21:08.202Z,16.57
2017-06-05T02:22:07.992Z,16.57
2017-06-05T02:23:08.104Z,16.57
2017-06-05T02:24:07.921Z,16.57
2017-06-05T02:25:07.802Z,16.54
2017-06-05T02:26:07.826Z,16.54
2017-06-05T02:27:07.794Z,16.55
2017-06-05T02:28:07.866Z,16.56
2017-06-05T02:29:07.675Z,16.53
2017-06-05T02:30:07.540Z,16.53
2017-06-05T02:31:07.461Z,16.53
2017-06-05T02:32:08.324Z,16.55
2017-06-05T02:33:09.051Z,16.56
2017-06-05T02:34:07.991Z,16.57
2017-06-05T02:35:08.020Z,16.56
2017-06-05T02:36:08.060Z,16.51
2017-06-05T02:37:08.069Z,16.52
2017-06-05T02:38:08.850Z,16.51
2017-06-05T02:39:08.008Z,16.53
2017-06-05T02:40:09.615Z,16.54
2017-06-05T02:41:08.093Z,16.55
2017-06-05T02:42:08.021Z,16.55
2017-06-05T02:43:08.064Z,16.56
2017-06-05T02:44:08.034Z,16.58
2017-06-05T02:45:08.076Z,16.60
2017-06-05T02:46:08.125Z,16.64
2017-06-05T02:47:08.129Z,16.64
2017-06-05T02:48:08.056Z,16.67
2017-06-05T02:49:08.025Z,16.66
2017-06-05T02:50:08.064Z,16.66
2017-06-05T02:51:08.205Z,16.65
2017-06-05T02:52:07.917Z,16.64
2017-06-05T02:53:08.056Z,16.65
2017-06-05T02:54:07.998Z,16.62
2017-06-05T02:55:07.968Z,16.65
2017-06-05T02:56:07.923Z,16.67
2017-06-05T02:57:07.754Z,16.67
2017-06-05T02:58:07.743Z,16.66
2017-06-05T02:59:07.902Z,16.67
2017-06-05T03:00:07.863Z,16.69
2017-06-05T03:01:07.794Z,16.71
2017-06-05T03:02:07.593Z,16.72
2017-06-05T03:03:07.691Z,16.68
2017-06-05T03:04:07.455Z,16.68
2017-06-05T03:05:08.123Z,16.70
2017-06-05T03:06:08.130Z,16.74
2017-06-05T03:07:08.068Z,16.74
2017-06-05T03:08:07.964Z,16.72
2017-06-05T03:09:08.037Z,16.75
2017-06-05T03:10:08.019Z,16.75
2017-06-05T03:11:07.918Z,16.75
2017-06-05T03:12:07.801Z,16.76
2017-06-05T03:13:07.834Z,16.76
2017-06-05T03:14:07.754Z,16.74
2017-06-05T03:15:07.678Z,16.74
2017-06-05T03:16:07.652Z,16.74
2017-06-05T03:17:07.565Z,16.73
2017-06-05T03:18:07.615Z,16.72
2017-06-05T03:19:07.202Z,16.72
2017-06-05T03:20:08.085Z,16.73
2017-06-05T03:21:08.243Z,16.76
2017-06-05T03:22:08.173Z,16.76
2017-06-05T03:23:08.185Z,16.76
2017-06-05T03:24:08.134Z,16.77
2017-06-05T03:25:07.999Z,16.80
2017-06-05T03:26:08.104Z,16.82
2017-06-05T03:27:08.176Z,16.84
2017-06-05T03:28:08.126Z,16.84
2017-06-05T03:29:08.026Z,16.85
2017-06-05T03:30:08.069Z,16.82
2017-06-05T03:31:08.145Z,16.83
2017-06-05T03:32:08.107Z,16.83
2017-06-05T03:33:08.165Z,16.85
2017-06-05T03:34:08.122Z,16.85
2017-06-05T03:35:08.076Z,16.86
2017-06-05T03:36:08.088Z,16.89
2017-06-05T03:37:07.978Z,16.90
2017-06-05T03:38:07.883Z,16.91
2017-06-05T03:39:07.879Z,16.90
2017-06-05T03:40:07.860Z,16.89
2017-06-05T03:41:07.727Z,16.92
2017-06-05T03:42:07.659Z,16.94
2017-06-05T03:43:07.558Z,16.93
2017-06-05T03:44:08.258Z,16.94
2017-06-05T03:45:07.318Z,16.93
2017-06-05T03:46:08.243Z,16.92
2017-06-05T03:47:08.303Z,16.92
2017-06-05T03:48:08.199Z,16.93
2017-06-05T03:49:08.210Z,16.95
2017-06-05T03:50:08.090Z,16.96
2017-06-05T03:51:08.248Z,16.97
2017-06-05T03:52:08.109Z,16.98
2017-06-05T03:53:08.157Z,16.97
2017-06-05T03:54:07.974Z,16.97
2017-06-05T03:55:08.149Z,16.95
2017-06-05T03:56:07.638Z,16.95
2017-06-05T03:57:07.562Z,16.94
2017-06-05T03:58:07.442Z,16.93
2017-06-05T03:59:08.227Z,16.95
2017-06-05T04:00:08.197Z,16.97
2017-06-05T04:01:08.209Z,16.98
2017-06-05T04:02:08.093Z,16.97
2017-06-05T04:03:08.026Z,16.98
2017-06-05T04:04:08.000Z,16.97
2017-06-05T04:05:08.221Z,16.97
2017-06-05T04:06:07.740Z,16.98
2017-06-05T04:07:07.615Z,17.02
2017-06-05T04:08:07.401Z,17.03
2017-06-05T04:09:08.409Z,17.03
2017-06-05T04:10:08.195Z,17.02
2017-06-05T04:11:08.189Z,17.00
2017-06-05T04:12:08.055Z,17.03
2017-06-05T04:13:08.058Z,17.03
2017-06-05T04:14:07.937Z,17.05
2017-06-05T04:15:07.884Z,17.04
2017-06-05T04:16:07.860Z,17.05
2017-06-05T04:17:07.893Z,17.04
2017-06-05T04:18:08.053Z,17.00
2017-06-05T04:19:07.948Z,16.98
2017-06-05T04:20:07.890Z,16.95
2017-06-05T04:21:08.820Z,16.94
2017-06-05T04:22:07.702Z,16.94
2017-06-05T04:23:07.466Z,16.96
2017-06-05T04:24:08.396Z,16.98
2017-06-05T04:25:10.411Z,17.02
2017-06-05T04:26:10.361Z,17.02
2017-06-05T04:27:09.894Z,17.01
2017-06-05T04:28:08.181Z,17.00
2017-06-05T04:29:08.082Z,17.01
2017-06-05T04:30:08.081Z,17.02
2017-06-05T04:31:08.017Z,17.01
2017-06-05T04:32:08.004Z,17.04
2017-06-05T04:33:07.877Z,17.03
2017-06-05T04:34:07.755Z,17.03
2017-06-05T04:35:08.520Z,17.04
2017-06-05T04:36:07.462Z,17.05
2017-06-05T04:37:08.236Z,17.05
2017-06-05T04:38:08.383Z,17.04
2017-06-05T04:39:08.328Z,17.05
2017-06-05T04:40:08.260Z,17.03
2017-06-05T04:41:08.361Z,17.04
2017-06-05T04:42:08.263Z,17.05
2017-06-05T04:43:08.331Z,17.04
2017-06-05T04:44:09.087Z,17.06
2017-06-05T04:45:08.291Z,17.05
2017-06-05T04:46:08.272Z,17.05
2017-06-05T04:47:08.201Z,17.07
2017-06-05T04:48:08.522Z,17.06
2017-06-05T04:49:08.289Z,17.06
2017-06-05T04:50:08.310Z,17.07
2017-06-05T04:51:08.390Z,17.06
2017-06-05T04:52:08.288Z,17.05
2017-06-05T04:53:08.536Z,17.04
2017-06-05T04:54:08.441Z,17.03
2017-06-05T04:55:08.347Z,17.05
2017-06-05T04:56:08.236Z,17.06
2017-06-05T04:57:08.154Z,17.07
2017-06-05T04:58:08.054Z,17.09
2017-06-05T04:59:08.113Z,17.07
2017-06-05T05:00:08.088Z,17.06
2017-06-05T05:01:08.054Z,17.07
2017-06-05T05:02:07.988Z,17.08
2017-06-05T05:03:07.941Z,17.09
2017-06-05T05:04:07.595Z,17.11
2017-06-05T05:05:07.744Z,17.12
2017-06-05T05:06:07.657Z,17.15
2017-06-05T05:07:07.442Z,17.14
2017-06-05T05:08:08.083Z,17.14
2017-06-05T05:09:08.064Z,17.16
2017-06-05T05:10:08.173Z,17.16
2017-06-05T05:11:07.928Z,17.18
2017-06-05T05:12:07.983Z,17.18
2017-06-05T05:13:07.784Z,17.19
2017-06-05T05:14:07.719Z,17.20
2017-06-05T05:15:07.399Z,17.19
2017-06-05T05:16:08.374Z,17.18
2017-06-05T05:17:07.505Z,17.19
2017-06-05T05:18:08.448Z,17.22
2017-06-05T05:19:08.158Z,17.26
2017-06-05T05:20:08.147Z,17.25
2017-06-05T05:21:08.067Z,17.23
2017-06-05T05:22:08.109Z,17.22
2017-06-05T05:23:07.938Z,17.23
2017-06-05T05:24:08.092Z,17.23
2017-06-05T05:25:08.056Z,17.25
2017-06-05T05:26:08.014Z,17.27
2017-06-05T05:27:08.712Z,17.29
2017-06-05T05:28:07.747Z,17.29
2017-06-05T05:29:08.498Z,17.29
2017-06-05T05:30:07.422Z,17.31
2017-06-05T05:31:08.078Z,17.34
2017-06-05T05:32:07.974Z,17.37
2017-06-05T05:33:08.122Z,17.39
2017-06-05T05:34:08.125Z,17.41
2017-06-05T05:35:08.024Z,17.43
2017-06-05T05:36:07.915Z,17.44
2017-06-05T05:37:07.785Z,17.45
2017-06-05T05:38:07.779Z,17.47
2017-06-05T05:39:07.771Z,17.47
2017-06-05T05:40:07.413Z,17.47
2017-06-05T05:41:08.271Z,17.48
2017-06-05T05:42:08.028Z,17.50
2017-06-05T05:43:07.913Z,17.50
2017-06-05T05:44:08.104Z,17.53
2017-06-05T05:45:07.808Z,17.53
2017-06-05T05:46:07.786Z,17.55
2017-06-05T05:47:07.781Z,17.57
2017-06-05T05:48:07.661Z,17.59
2017-06-05T05:49:07.538Z,17.57
2017-06-05T05:50:08.263Z,17.56
2017-06-05T05:51:08.214Z,17.54
2017-06-05T05:52:08.162Z,17.54
2017-06-05T05:53:08.064Z,17.54
2017-06-05T05:54:08.049Z,17.51
2017-06-05T05:55:07.945Z,17.53
2017-06-05T05:56:07.832Z,17.54
2017-06-05T05:57:07.647Z,17.56
2017-06-05T05:58:07.503Z,17.56
2017-06-05T05:59:08.411Z,17.57
2017-06-05T06:00:08.130Z,17.57
2017-06-05T06:01:08.158Z,17.57
2017-06-05T06:02:08.130Z,17.57
2017-06-05T06:03:08.122Z,17.57
2017-06-05T06:04:08.009Z,17.60
2017-06-05T06:05:08.003Z,17.60
2017-06-05T06:06:07.697Z,17.59
2017-06-05T06:07:07.591Z,17.56
2017-06-05T06:08:07.421Z,17.57
2017-06-05T06:09:07.445Z,17.57
2017-06-05T06:10:08.154Z,17.58
2017-06-05T06:11:08.119Z,17.59
2017-06-05T06:12:08.192Z,17.61
2017-06-05T06:13:07.883Z,17.61
2017-06-05T06:14:07.762Z,17.63
2017-06-05T06:15:07.730Z,17.65
2017-06-05T06:16:07.608Z,17.65
2017-06-05T06:17:07.554Z,17.63
2017-06-05T06:18:07.498Z,17.60
2017-06-05T06:19:08.238Z,17.61
2017-06-05T06:20:08.108Z,17.62
2017-06-05T06:21:08.209Z,17.64
2017-06-05T06:22:07.996Z,17.65
2017-06-05T06:23:07.892Z,17.64
2017-06-05T06:24:07.882Z,17.66
2017-06-05T06:25:07.859Z,17.67
2017-06-05T06:26:07.574Z,17.67
2017-06-05T06:27:07.510Z,17.66
2017-06-05T06:28:08.197Z,17.63
2017-06-05T06:29:08.075Z,17.64
2017-06-05T06:30:07.958Z,17.67
2017-06-05T06:31:07.869Z,17.68
2017-06-05T06:32:07.774Z,17.67
2017-06-05T06:33:07.648Z,17.70
2017-06-05T06:34:07.536Z,17.72
2017-06-05T06:35:08.192Z,17.72
2017-06-05T06:36:08.116Z,17.70
2017-06-05T06:37:08.176Z,17.70
2017-06-05T06:38:08.176Z,17.69
2017-06-05T06:39:08.140Z,17.69
2017-06-05T06:40:08.426Z,17.68
2017-06-05T06:41:08.010Z,17.69
2017-06-05T06:42:08.012Z,17.70
2017-06-05T06:43:07.785Z,17.69
2017-06-05T06:44:07.616Z,17.71
2017-06-05T06:45:07.530Z,17.73
2017-06-05T06:46:08.247Z,17.71
2017-06-05T06:47:08.186Z,17.68
2017-06-05T06:48:08.137Z,17.66
2017-06-05T06:49:07.855Z,17.67
2017-06-05T06:50:07.816Z,17.67
2017-06-05T06:51:08.073Z,17.70
2017-06-05T06:52:07.529Z,17.72
2017-06-05T06:53:07.532Z,17.76
2017-06-05T06:54:07.291Z,17.78
2017-06-05T06:55:08.344Z,17.77
2017-06-05T06:56:08.392Z,17.77
2017-06-05T06:57:08.071Z,17.79
2017-06-05T06:58:07.896Z,17.79
2017-06-05T06:59:07.863Z,17.81
2017-06-05T07:00:07.695Z,17.84
2017-06-05T07:01:07.486Z,17.84
2017-06-05T07:02:07.523Z,17.85
2017-06-05T07:03:08.242Z,17.86
2017-06-05T07:04:08.225Z,17.87
2017-06-05T07:05:08.149Z,17.87
2017-06-05T07:06:08.131Z,17.89
2017-06-05T07:07:08.297Z,17.91
2017-06-05T07:08:08.169Z,17.88
2017-06-05T07:09:07.989Z,17.88
2017-06-05T07:10:08.800Z,17.91
2017-06-05T07:11:07.611Z,17.92
2017-06-05T07:12:07.627Z,17.95
2017-06-05T07:13:07.436Z,17.98
2017-06-05T07:14:08.294Z,17.99
2017-06-05T07:15:08.052Z,17.96
2017-06-05T07:16:07.909Z,17.99
2017-06-05T07:17:07.893Z,18.01
2017-06-05T07:18:07.942Z,18.04
2017-06-05T07:19:07.792Z,18.07
2017-06-05T07:20:07.593Z,18.08
2017-06-05T07:21:07.575Z,18.06
2017-06-05T07:22:08.128Z,18.05
2017-06-05T07:23:08.212Z,18.05
2017-06-05T07:24:08.060Z,18.03
2017-06-05T07:25:09.026Z,18.03
2017-06-05T07:26:07.949Z,18.05
2017-06-05T07:27:07.746Z,18.05
2017-06-05T07:28:07.914Z,18.08
2017-06-05T07:29:07.453Z,18.12
2017-06-05T07:30:08.248Z,18.13
2017-06-05T07:31:08.259Z,18.10
2017-06-05T07:32:08.179Z,18.08
2017-06-05T07:33:08.070Z,18.09
2017-06-05T07:34:07.871Z,18.14
2017-06-05T07:35:07.747Z,18.16
2017-06-05T07:36:07.657Z,18.18
2017-06-05T07:37:07.326Z,18.19
2017-06-05T07:38:08.491Z,18.19
2017-06-05T07:39:08.267Z,18.15
2017-06-05T07:40:08.335Z,18.15
2017-06-05T07:41:08.240Z,18.14
2017-06-05T07:42:08.061Z,18.13
2017-06-05T07:43:07.952Z,18.14
2017-06-05T07:44:07.935Z,18.13
2017-06-05T07:45:08.343Z,18.14
2017-06-05T07:46:07.493Z,18.16
2017-06-05T07:47:07.312Z,18.16
2017-06-05T07:48:08.103Z,18.17
2017-06-05T07:49:07.910Z,18.17
2017-06-05T07:50:07.938Z,18.16
2017-06-05T07:51:08.695Z,18.17
2017-06-05T07:52:07.653Z,18.14
2017-06-05T07:53:07.479Z,18.05
2017-06-05T07:54:08.278Z,18.04
2017-06-05T07:55:08.361Z,18.06
2017-06-05T07:56:08.114Z,18.11
2017-06-05T07:57:07.998Z,18.13
2017-06-05T07:58:07.959Z,18.15
2017-06-05T07:59:07.795Z,18.18
2017-06-05T08:00:07.714Z,18.16
2017-06-05T08:01:07.461Z,18.15
2017-06-05T08:02:08.396Z,18.14
2017-06-05T08:03:08.349Z,18.16
2017-06-05T08:04:08.114Z,18.21
2017-06-05T08:05:07.886Z,18.19
2017-06-05T08:06:07.933Z,18.18
2017-06-05T08:07:07.839Z,18.20
2017-06-05T08:08:08.578Z,18.20
2017-06-05T08:09:07.510Z,18.19
2017-06-05T08:10:08.469Z,18.17
2017-06-05T08:11:08.288Z,18.15
2017-06-05T08:12:08.259Z,18.14
2017-06-05T08:13:08.117Z,18.16
2017-06-05T08:14:07.860Z,18.17
2017-06-05T08:15:07.716Z,18.16
2017-06-05T08:16:07.649Z,18.16
2017-06-05T08:17:07.727Z,18.15
2017-06-05T08:18:07.438Z,18.14
2017-06-05T08:19:08.330Z,18.15
2017-06-05T08:20:08.236Z,18.13
2017-06-05T08:21:08.032Z,18.10
2017-06-05T08:22:07.835Z,18.12
2017-06-05T08:23:07.899Z,18.13
2017-06-05T08:24:07.789Z,18.12
2017-06-05T08:25:07.660Z,18.14
2017-06-05T08:26:07.549Z,18.16
2017-06-05T08:27:09.243Z,18.18
2017-06-05T08:28:08.263Z,18.21
2017-06-05T08:29:08.207Z,18.27
2017-06-05T08:30:08.023Z,18.32
2017-06-05T08:31:08.042Z,18.35
2017-06-05T08:32:07.750Z,18.39
2017-06-05T08:33:07.680Z,18.44
2017-06-05T08:34:07.704Z,18.48
2017-06-05T08:35:08.315Z,18.51
2017-06-05T08:36:08.334Z,18.54
2017-06-05T08:37:08.290Z,18.60
2017-06-05T08:38:08.032Z,18.66
2017-06-05T08:39:08.012Z,18.72
2017-06-05T08:40:07.973Z,18.76
2017-06-05T08:41:07.724Z,18.81
2017-06-05T08:42:07.646Z,18.83
2017-06-05T08:43:08.286Z,18.89
2017-06-05T08:44:08.488Z,18.91
2017-06-05T08:45:08.930Z,18.93
2017-06-05T08:46:07.985Z,18.87
2017-06-05T08:47:07.785Z,18.85
2017-06-05T08:48:07.703Z,18.87
2017-06-05T08:49:07.420Z,18.87
2017-06-05T08:50:08.022Z,18.86
2017-06-05T08:51:15.616Z,18.85
2017-06-05T08:52:07.842Z,18.90
2017-06-05T08:53:07.701Z,18.91
2017-06-05T08:54:07.554Z,18.94
2017-06-05T08:55:08.593Z,18.96
2017-06-05T08:56:08.206Z,18.97
2017-06-05T08:57:08.111Z,18.97
2017-06-05T08:58:08.047Z,18.93
2017-06-05T08:59:07.907Z,18.93
2017-06-05T09:00:07.690Z,18.91
2017-06-05T09:01:07.467Z,18.92
2017-06-05T09:02:07.836Z,18.92
2017-06-05T09:03:08.133Z,18.90
2017-06-05T09:04:08.707Z,18.91
2017-06-05T09:05:07.741Z,18.88
2017-06-05T09:06:07.770Z,18.83
2017-06-05T09:07:07.443Z,18.80
2017-06-05T09:08:07.375Z,18.81
2017-06-05T09:09:09.049Z,18.83
2017-06-05T09:10:08.084Z,18.86
2017-06-05T09:11:07.730Z,18.89
2017-06-05T09:12:07.794Z,18.92
2017-06-05T09:13:07.536Z,18.93
2017-06-05T09:14:07.437Z,18.93
2017-06-05T09:15:09.210Z,18.93
2017-06-05T09:16:08.055Z,18.92
2017-06-05T09:17:08.129Z,18.91
2017-06-05T09:18:07.941Z,18.94
2017-06-05T09:19:07.825Z,18.94
2017-06-05T09:20:15.222Z,18.96
2017-06-05T09:21:07.387Z,19.00
2017-06-05T09:22:08.310Z,19.03
2017-06-05T09:23:08.108Z,18.91
2017-06-05T09:24:08.088Z,18.85
2017-06-05T09:25:15.375Z,18.88
2017-06-05T09:26:07.763Z,18.89
2017-06-05T09:27:08.767Z,18.92
2017-06-05T09:28:07.458Z,18.96
2017-06-05T09:29:08.106Z,18.97
2017-06-05T09:30:08.026Z,18.94
2017-06-05T09:31:07.977Z,18.88
2017-06-05T09:32:07.758Z,18.93
2017-06-05T09:33:07.547Z,18.96
2017-06-05T09:34:08.329Z,18.96
2017-06-05T09:35:08.105Z,18.97
2017-06-05T09:36:08.305Z,18.98
2017-06-05T09:37:08.041Z,18.98
2017-06-05T09:38:07.874Z,18.99
2017-06-05T09:39:07.917Z,19.08
2017-06-05T09:40:07.721Z,19.15
2017-06-05T09:41:07.528Z,19.19
2017-06-05T09:42:08.133Z,19.24
2017-06-05T09:43:08.045Z,19.28
2017-06-05T09:44:08.080Z,19.30
2017-06-05T09:45:07.958Z,19.27
2017-06-05T09:46:07.764Z,19.30
2017-06-05T09:47:07.562Z,19.32
2017-06-05T09:48:08.355Z,19.34
2017-06-05T09:49:08.138Z,19.37
2017-06-05T09:50:08.912Z,19.43
2017-06-05T09:51:08.449Z,19.48
2017-06-05T09:52:07.694Z,19.51
2017-06-05T09:53:08.494Z,19.51
2017-06-05T09:54:07.415Z,19.53
2017-06-05T09:55:08.065Z,19.57
2017-06-05T09:56:08.351Z,19.62
2017-06-05T09:57:08.010Z,19.64
2017-06-05T09:58:07.766Z,19.70
2017-06-05T09:59:07.567Z,19.75
2017-06-05T10:00:07.488Z,19.78
2017-06-05T10:01:08.071Z,19.83
2017-06-05T10:02:08.194Z,19.85
2017-06-05T10:03:08.738Z,19.88
2017-06-05T10:04:07.666Z,19.92
2017-06-05T10:05:07.751Z,19.92
2017-06-05T10:06:07.504Z,19.90
2017-06-05T10:07:08.205Z,19.88
2017-06-05T10:08:08.126Z,19.86
2017-06-05T10:09:08.036Z,19.85
2017-06-05T10:10:07.736Z,19.83
2017-06-05T10:11:07.586Z,19.83
2017-06-05T10:12:07.570Z,19.83
2017-06-05T10:13:08.139Z,19.82
2017-06-05T10:14:07.959Z,19.80
2017-06-05T10:15:07.951Z,19.81
2017-06-05T10:16:07.894Z,19.79
2017-06-05T10:17:07.857Z,19.76
2017-06-05T10:18:07.790Z,19.75
2017-06-05T10:19:07.449Z,19.77
2017-06-05T10:20:08.186Z,19.79
2017-06-05T10:21:08.350Z,19.84
2017-06-05T10:22:08.075Z,19.81
2017-06-05T10:23:08.157Z,19.75
2017-06-05T10:24:07.895Z,19.73
2017-06-05T10:25:07.843Z,19.73
2017-06-05T10:26:07.542Z,19.75
2017-06-05T10:27:07.781Z,19.78
2017-06-05T10:28:08.428Z,19.80
2017-06-05T10:29:08.987Z,19.83
2017-06-05T10:30:07.928Z,19.85
2017-06-05T10:31:08.675Z,19.82
2017-06-05T10:32:07.615Z,19.81
2017-06-05T10:33:07.467Z,19.80
2017-06-05T10:34:08.488Z,19.81
2017-06-05T10:35:08.146Z,19.83
2017-06-05T10:36:08.042Z,19.81
2017-06-05T10:37:07.970Z,19.83
2017-06-05T10:38:07.623Z,19.87
2017-06-05T10:39:07.976Z,19.93
2017-06-05T10:40:08.270Z,19.97
2017-06-05T10:41:08.203Z,19.99
2017-06-05T10:42:08.292Z,20.02
2017-06-05T10:43:07.839Z,20.04
2017-06-05T10:44:07.734Z,20.04
2017-06-05T10:45:07.823Z,20.06
2017-06-05T10:46:07.519Z,20.07
2017-06-05T10:47:07.446Z,20.07
2017-06-05T10:48:08.154Z,20.06
2017-06-05T10:49:08.129Z,20.07
2017-06-05T10:50:07.959Z,20.07
2017-06-05T10:51:09.272Z,20.09
2017-06-05T10:52:07.593Z,20.12
2017-06-05T10:53:08.449Z,20.14
2017-06-05T10:54:07.298Z,20.18
2017-06-05T10:55:08.229Z,20.18
2017-06-05T10:56:08.087Z,20.18
2017-06-05T10:57:15.217Z,20.20
2017-06-05T10:58:07.667Z,20.18
2017-06-05T10:59:07.447Z,20.18
2017-06-05T11:00:09.141Z,20.20
2017-06-05T11:01:08.113Z,20.24
2017-06-05T11:02:08.011Z,20.27
2017-06-05T11:03:07.845Z,20.29
2017-06-05T11:04:07.706Z,20.30
2017-06-05T11:05:07.547Z,20.32
2017-06-05T11:06:08.202Z,20.35
2017-06-05T11:07:08.187Z,20.36
2017-06-05T11:08:07.984Z,20.36
2017-06-05T11:09:07.766Z,20.37
2017-06-05T11:10:07.610Z,20.38
2017-06-05T11:11:07.464Z,20.38
2017-06-05T11:12:08.375Z,20.38
2017-06-05T11:13:08.167Z,20.39
2017-06-05T11:14:07.962Z,20.39
2017-06-05T11:15:08.535Z,20.38
2017-06-05T11:16:08.052Z,20.34
2017-06-05T11:17:07.655Z,20.36
2017-06-05T11:18:07.609Z,20.33
2017-06-05T11:19:09.094Z,20.34
2017-06-05T11:20:08.132Z,20.34
2017-06-05T11:21:15.883Z,20.36
2017-06-05T11:22:08.138Z,20.37
2017-06-05T11:23:08.408Z,20.41
2017-06-05T11:24:07.669Z,20.44
2017-06-05T11:25:07.381Z,20.47
2017-06-05T11:26:08.749Z,20.48
2017-06-05T11:27:08.097Z,20.50
2017-06-05T11:28:07.827Z,20.52
2017-06-05T11:29:07.766Z,20.52
2017-06-05T11:30:08.097Z,20.49
2017-06-05T11:31:08.392Z,20.48
2017-06-05T11:32:08.338Z,20.47
2017-06-05T11:33:08.146Z,20.50
2017-06-05T11:34:07.831Z,20.51
2017-06-05T11:35:07.764Z,20.52
2017-06-05T11:36:07.599Z,20.53
2017-06-05T11:37:07.199Z,20.48
2017-06-05T11:38:08.161Z,20.42
2017-06-05T11:39:07.937Z,20.41
2017-06-05T11:40:07.857Z,20.43
2017-06-05T11:41:07.728Z,20.46
2017-06-05T11:42:07.630Z,20.47
2017-06-05T11:43:08.171Z,20.52
2017-06-05T11:44:08.034Z,20.57
2017-06-05T11:45:07.986Z,20.59
2017-06-05T11:46:07.895Z,20.57
2017-06-05T11:47:07.939Z,20.53
2017-06-05T11:48:07.583Z,20.51
2017-06-05T11:49:08.220Z,20.53
2017-06-05T11:50:10.612Z,20.56
2017-06-05T11:51:08.175Z,20.50
2017-06-05T11:52:08.951Z,20.47
2017-06-05T11:53:07.878Z,20.47
2017-06-05T11:54:07.595Z,20.47
2017-06-05T11:55:07.378Z,20.44
2017-06-05T11:56:08.131Z,20.45
2017-06-05T11:57:07.916Z,20.45
2017-06-05T11:58:07.650Z,20.47
2017-06-05T11:59:07.485Z,20.47
2017-06-05T12:00:08.300Z,20.52
2017-06-05T12:01:08.242Z,20.55
2017-06-05T12:02:09.122Z,20.56
2017-06-05T12:03:07.922Z,20.58
2017-06-05T12:04:08.650Z,20.62
2017-06-05T12:05:07.557Z,20.66
2017-06-05T12:06:08.191Z,20.66
2017-06-05T12:07:08.309Z,20.69
2017-06-05T12:08:08.275Z,20.69
2017-06-05T12:09:08.057Z,20.64
2017-06-05T12:10:07.974Z,20.69
2017-06-05T12:11:07.646Z,20.55
2017-06-05T12:12:07.674Z,20.59
2017-06-05T12:13:07.705Z,20.59
2017-06-05T12:14:09.085Z,20.63
2017-06-05T12:15:08.882Z,20.70
2017-06-05T12:16:07.900Z,20.73
2017-06-05T12:17:07.802Z,20.77
2017-06-05T12:18:07.756Z,20.80
2017-06-05T12:19:08.654Z,20.83
2017-06-05T12:20:08.166Z,20.85
2017-06-05T12:21:07.944Z,20.88
2017-06-05T12:22:07.669Z,20.89
2017-06-05T12:23:08.643Z,20.88
2017-06-05T12:24:07.408Z,20.91
2017-06-05T12:25:08.141Z,20.97
2017-06-05T12:26:07.978Z,21.02
2017-06-05T12:27:07.683Z,21.04
2017-06-05T12:28:08.457Z,21.10
2017-06-05T12:29:08.274Z,21.17
2017-06-05T12:30:08.192Z,21.22
2017-06-05T12:31:07.976Z,21.30
2017-06-05T12:32:07.726Z,21.30
2017-06-05T12:33:07.755Z,21.35
2017-06-05T12:34:07.403Z,21.38
2017-06-05T12:35:07.928Z,21.40
2017-06-05T12:36:07.876Z,21.45
2017-06-05T12:37:07.709Z,21.51
2017-06-05T12:38:07.585Z,21.53
2017-06-05T12:39:08.179Z,21.51
2017-06-05T12:40:07.972Z,21.45
2017-06-05T12:41:07.862Z,21.43
2017-06-05T12:42:07.752Z,21.40
2017-06-05T12:43:07.428Z,21.37
2017-06-05T12:44:08.469Z,21.36
2017-06-05T12:45:08.060Z,21.36
2017-06-05T12:46:07.800Z,21.38
2017-06-05T12:47:08.063Z,21.37
2017-06-05T12:48:07.204Z,21.39
2017-06-05T12:49:08.164Z,21.41
2017-06-05T12:50:07.933Z,21.45
2017-06-05T12:51:07.759Z,21.50
2017-06-05T12:52:07.468Z,21.56